createdAt,value
2019-05-06T00:01:26.389Z,10.20
2019-05-06T00:03:56.216Z,8.23
2019-05-06T00:06:25.932Z,13.70
2019-05-06T00:08:55.602Z,9.77
2019-05-06T00:11:25.286Z,14.00
2019-05-06T00:13:54.965Z,15.13
2019-05-06T00:16:24.682Z,14.77
2019-05-06T00:18:54.429Z,14.30
2019-05-06T00:21:24.564Z,10.57
2019-05-06T00:23:54.771Z,13.77
2019-05-06T00:26:46.564Z,15.93
2019-05-06T00:29:18.835Z,13.80
2019-05-06T00:31:48.599Z,10.63
2019-05-06T00:34:18.339Z,11.83
2019-05-06T00:36:48.046Z,11.40
2019-05-06T00:39:27.198Z,11.50
2019-05-06T00:42:13.938Z,15.20
2019-05-06T00:44:44.297Z,16.57
2019-05-06T00:47:14.082Z,17.53
2019-05-06T00:49:43.856Z,11.63
2019-05-06T00:52:13.669Z,12.20
2019-05-06T00:54:43.682Z,13.13
2019-05-06T00:57:14.003Z,11.00
2019-05-06T00:59:44.217Z,16.20
2019-05-06T01:02:14.115Z,11.97
2019-05-06T01:04:44.606Z,16.00
2019-05-06T01:07:14.442Z,13.80
2019-05-06T01:09:44.172Z,11.60
2019-05-06T01:12:14.325Z,15.77
2019-05-06T01:14:47.762Z,15.43
2019-05-06T01:17:17.528Z,24.43
2019-05-06T01:19:47.338Z,17.40
2019-05-06T01:22:17.094Z,13.50
2019-05-06T01:24:46.918Z,18.43
2019-05-06T01:27:16.583Z,14.90
2019-05-06T01:29:46.270Z,10.10
2019-05-06T01:32:16.002Z,11.87
2019-05-06T01:34:45.761Z,20.37
2019-05-06T01:37:15.657Z,10.43
2019-05-06T01:40:04.355Z,11.70
2019-05-06T01:42:51.182Z,13.97
2019-05-06T01:45:20.894Z,14.13
2019-05-06T01:47:50.878Z,11.20
2019-05-06T01:50:20.762Z,12.80
2019-05-06T01:52:50.450Z,14.97
2019-05-06T01:55:20.142Z,11.73
2019-05-06T01:57:49.892Z,12.90
2019-05-06T02:00:19.737Z,12.97
2019-05-06T02:02:49.407Z,15.90
2019-05-06T02:05:19.139Z,10.87
2019-05-06T02:07:48.848Z,10.87
2019-05-06T02:10:18.592Z,12.40
2019-05-06T02:12:48.221Z,13.40
2019-05-06T02:15:18.081Z,12.07
2019-05-06T02:17:47.760Z,12.33
2019-05-06T02:20:17.449Z,16.33
2019-05-06T02:23:04.207Z,16.53
2019-05-06T02:25:41.348Z,13.63
2019-05-06T02:28:11.156Z,15.57
2019-05-06T02:31:07.618Z,13.43
2019-05-06T02:33:59.647Z,11.63
2019-05-06T02:36:37.660Z,11.70
2019-05-06T02:39:07.916Z,12.33
2019-05-06T02:41:37.700Z,13.60
2019-05-06T02:44:10.244Z,16.67
2019-05-06T02:46:43.846Z,16.43
2019-05-06T02:49:23.680Z,12.73
2019-05-06T02:51:53.845Z,15.37
2019-05-06T02:54:23.777Z,14.80
2019-05-06T02:56:53.698Z,17.47
2019-05-06T02:59:24.152Z,20.83
2019-05-06T03:01:54.182Z,14.70
2019-05-06T03:04:23.907Z,13.37
2019-05-06T03:06:53.622Z,13.80
2019-05-06T03:09:23.490Z,12.80
2019-05-06T03:11:53.974Z,15.17
2019-05-06T03:14:24.037Z,13.63
2019-05-06T03:16:54.264Z,14.77
2019-05-06T03:19:25.212Z,17.27
2019-05-06T03:22:09.750Z,14.33
2019-05-06T03:24:54.383Z,20.90
2019-05-06T03:27:24.635Z,12.67
2019-05-06T03:29:54.369Z,13.23
2019-05-06T03:36:06.283Z,15.40
2019-05-06T03:38:27.261Z,11.37
2019-05-06T03:40:56.930Z,17.27
2019-05-06T03:43:26.587Z,17.53
2019-05-06T03:46:14.283Z,13.67
2019-05-06T03:48:46.033Z,21.43
2019-05-06T03:51:15.753Z,16.33
2019-05-06T03:53:49.056Z,14.77
2019-05-06T03:56:20.325Z,13.47
2019-05-06T03:58:53.750Z,14.80
2019-05-06T04:01:24.314Z,19.67
2019-05-06T04:03:57.178Z,17.17
2019-05-06T04:06:25.450Z,12.60
2019-05-06T04:08:55.536Z,19.17
2019-05-06T04:11:25.967Z,13.00
2019-05-06T04:13:57.406Z,17.13
2019-05-06T04:16:43.993Z,11.70
2019-05-06T04:19:23.816Z,14.90
2019-05-06T04:21:59.615Z,12.63
2019-05-06T04:25:03.587Z,12.13
2019-05-06T04:28:02.920Z,12.73
2019-05-06T04:30:33.445Z,16.20
2019-05-06T04:33:07.241Z,12.30
2019-05-06T04:35:35.706Z,13.27
2019-05-06T04:38:09.193Z,12.40
2019-05-06T04:40:39.173Z,12.60
2019-05-06T04:43:13.055Z,10.60
2019-05-06T04:45:43.272Z,17.37
2019-05-06T04:48:17.757Z,11.77
2019-05-06T04:50:47.679Z,10.00
2019-05-06T04:53:17.499Z,13.17
2019-05-06T04:55:47.381Z,12.70
2019-05-06T04:58:17.069Z,18.83
2019-05-06T05:00:46.968Z,17.90
2019-05-06T05:03:16.815Z,14.50
2019-05-06T05:05:46.531Z,13.57
2019-05-06T05:08:16.425Z,17.20
2019-05-06T05:10:54.806Z,15.23
2019-05-06T05:13:46.454Z,20.77
2019-05-06T05:23:20.174Z,17.53
2019-05-06T05:25:57.334Z,14.77
2019-05-06T05:28:22.406Z,17.83
2019-05-06T05:30:52.399Z,15.20
2019-05-06T05:33:22.802Z,16.30
2019-05-06T05:35:52.736Z,17.77
2019-05-06T05:38:22.844Z,12.60
2019-05-06T05:40:52.641Z,16.83
2019-05-06T05:43:28.507Z,14.17
2019-05-06T05:45:58.486Z,16.50
2019-05-06T05:48:46.072Z,15.93
2019-05-06T05:51:16.206Z,16.70
2019-05-06T05:53:46.154Z,13.00
2019-05-06T05:56:16.087Z,11.43
2019-05-06T05:58:45.945Z,14.13
2019-05-06T06:01:15.734Z,12.93
2019-05-06T06:03:45.883Z,14.73
2019-05-06T06:06:15.890Z,15.77
2019-05-06T06:08:45.668Z,14.53
2019-05-06T06:11:23.544Z,14.00
2019-05-06T06:13:53.508Z,16.50
2019-05-06T06:16:42.268Z,11.20
2019-05-06T06:19:25.548Z,12.43
2019-05-06T06:22:04.647Z,12.93
2019-05-06T06:24:36.029Z,16.20
2019-05-06T06:27:05.864Z,11.40
2019-05-06T06:29:35.658Z,16.73
2019-05-06T06:32:17.553Z,9.70
2019-05-06T06:35:06.519Z,11.27
2019-05-06T06:37:39.727Z,13.10
2019-05-06T06:40:10.446Z,13.03
2019-05-06T06:42:40.247Z,15.80
2019-05-06T06:45:12.153Z,26.67
2019-05-06T06:47:42.549Z,19.60
2019-05-06T06:50:12.727Z,19.73
2019-05-06T06:52:42.543Z,11.50
2019-05-06T06:55:18.721Z,15.70
2019-05-06T06:58:02.541Z,20.87
2019-05-06T07:01:05.799Z,10.27
2019-05-06T07:03:43.067Z,13.03
2019-05-06T07:06:22.318Z,11.50
2019-05-06T07:08:51.836Z,7.60
2019-05-06T07:11:22.553Z,10.10
2019-05-06T07:13:56.413Z,9.23
2019-05-06T07:16:26.185Z,7.97
2019-05-06T07:18:58.541Z,9.33
2019-05-06T07:21:38.010Z,8.37
2019-05-06T07:24:13.084Z,12.97
2019-05-06T07:26:48.270Z,7.70
2019-05-06T07:29:23.439Z,6.37
2019-05-06T07:31:54.982Z,8.83
2019-05-06T07:34:28.401Z,7.50
2019-05-06T07:36:59.143Z,7.63
2019-05-06T07:39:29.354Z,11.67
2019-05-06T07:42:02.483Z,8.87
2019-05-06T07:44:57.009Z,8.83
2019-05-06T07:47:54.681Z,5.87
2019-05-06T07:50:24.556Z,8.80
2019-05-06T07:53:10.026Z,9.63
2019-05-06T07:55:46.647Z,11.37
2019-05-06T07:58:16.455Z,11.67
2019-05-06T08:00:46.300Z,6.63
2019-05-06T08:03:16.094Z,9.13
2019-05-06T08:05:55.854Z,11.83
2019-05-06T08:08:17.719Z,8.47
2019-05-06T08:10:47.786Z,8.80
2019-05-06T08:13:18.279Z,12.07
2019-05-06T08:15:48.079Z,7.90
2019-05-06T08:18:17.810Z,9.20
2019-05-06T08:20:47.614Z,9.07
2019-05-06T08:23:26.563Z,9.03
2019-05-06T08:26:09.151Z,8.80
2019-05-06T08:28:38.532Z,9.47
2019-05-06T08:30:59.747Z,10.13
2019-05-06T08:33:29.533Z,10.77
2019-05-06T08:36:10.514Z,9.47
2019-05-06T08:38:53.153Z,12.07
2019-05-06T08:41:44.205Z,9.03
2019-05-06T08:44:27.623Z,10.73
2019-05-06T08:46:58.372Z,10.27
2019-05-06T08:49:32.020Z,14.00
2019-05-06T08:52:06.976Z,7.57
2019-05-06T08:54:49.590Z,8.30
2019-05-06T08:57:19.371Z,8.77
2019-05-06T08:59:49.576Z,13.50
2019-05-06T09:02:22.854Z,9.03
2019-05-06T09:04:53.665Z,11.93
2019-05-06T09:07:24.356Z,8.00
2019-05-06T09:09:55.292Z,12.90
2019-05-06T09:12:25.666Z,12.57
2019-05-06T09:15:06.281Z,10.40
2019-05-06T09:17:42.021Z,11.17
2019-05-06T09:20:15.231Z,13.43
2019-05-06T09:22:45.277Z,17.70
2019-05-06T09:25:15.181Z,11.57
2019-05-06T09:28:04.531Z,17.43
2019-05-06T09:30:43.369Z,12.70
2019-05-06T09:33:14.616Z,18.27
2019-05-06T09:35:44.529Z,12.97
2019-05-06T09:38:14.443Z,16.50
2019-05-06T09:40:44.370Z,13.83
2019-05-06T09:43:14.226Z,15.70
2019-05-06T09:45:44.015Z,13.60
2019-05-06T09:48:22.279Z,14.43
2019-05-06T09:50:53.550Z,17.63
2019-05-06T09:53:28.997Z,13.57
2019-05-06T09:56:17.261Z,13.13
2019-05-06T09:58:47.120Z,14.93
2019-05-06T10:01:17.235Z,18.53
2019-05-06T10:03:47.041Z,14.00
2019-05-06T10:06:16.852Z,15.70
2019-05-06T10:08:46.646Z,17.83
2019-05-06T10:11:16.424Z,16.70
2019-05-06T10:13:46.302Z,20.60
2019-05-06T10:16:16.148Z,19.37
2019-05-06T10:18:45.986Z,16.07
2019-05-06T10:21:15.854Z,13.20
2019-05-06T10:23:45.656Z,17.33
2019-05-06T10:26:15.554Z,19.20
2019-05-06T10:29:02.328Z,13.27
2019-05-06T10:31:37.236Z,13.30
2019-05-06T10:34:14.285Z,16.90
2019-05-06T10:37:11.269Z,14.83
2019-05-06T10:39:30.614Z,15.47
2019-05-06T10:42:13.155Z,12.80
2019-05-06T10:45:08.250Z,15.70
2019-05-06T10:47:38.004Z,14.17
2019-05-06T10:50:08.638Z,13.07
2019-05-06T10:52:56.252Z,14.50
2019-05-06T10:55:26.410Z,19.37
2019-05-06T10:57:56.392Z,12.67
2019-05-06T11:00:26.232Z,11.73
2019-05-06T11:03:14.409Z,16.20
2019-05-06T11:05:43.415Z,13.40
2019-05-06T11:08:13.560Z,14.17
2019-05-06T11:10:45.373Z,12.63
2019-05-06T11:13:15.566Z,14.90
2019-05-06T11:15:45.694Z,14.50
2019-05-06T11:18:15.564Z,16.23
2019-05-06T11:20:45.423Z,19.57
2019-05-06T11:23:15.252Z,22.03
2019-05-06T11:25:45.036Z,18.30
2019-05-06T11:28:35.225Z,15.57
2019-05-06T11:31:22.962Z,13.87
2019-05-06T11:34:00.596Z,16.93
2019-05-06T11:36:38.395Z,15.67
2019-05-06T11:39:08.366Z,14.90
2019-05-06T11:41:38.251Z,14.17
2019-05-06T11:44:09.171Z,14.50
2019-05-06T11:46:39.111Z,16.40
2019-05-06T11:49:08.987Z,15.17
2019-05-06T11:51:38.786Z,15.73
2019-05-06T11:54:19.441Z,13.70
2019-05-06T11:56:48.757Z,16.27
2019-05-06T11:59:13.077Z,16.23
2019-05-06T12:01:55.559Z,18.70
2019-05-06T12:04:25.556Z,17.67
2019-05-06T12:07:09.997Z,15.47
2019-05-06T12:09:26.919Z,15.90
2019-05-06T12:11:56.817Z,11.23
2019-05-06T12:14:26.710Z,21.43
2019-05-06T12:16:56.863Z,13.17
2019-05-06T12:19:26.866Z,13.40
2019-05-06T12:21:56.708Z,11.50
2019-05-06T12:24:26.592Z,17.30
2019-05-06T12:26:56.703Z,13.20
2019-05-06T12:29:26.462Z,15.23
2019-05-06T12:32:18.224Z,14.93
2019-05-06T12:34:48.159Z,13.27
2019-05-06T12:37:19.903Z,13.43
2019-05-06T12:39:54.229Z,12.53
2019-05-06T12:42:48.861Z,16.37
2019-05-06T12:45:32.640Z,16.03
2019-05-06T12:48:15.691Z,12.90
2019-05-06T12:50:45.702Z,13.37
2019-05-06T12:53:15.614Z,12.43
2019-05-06T12:55:45.577Z,21.20
2019-05-06T12:58:20.009Z,14.30
2019-05-06T13:00:47.236Z,18.37
2019-05-06T13:03:17.233Z,19.20
2019-05-06T13:05:47.205Z,18.20
2019-05-06T13:08:20.166Z,15.83
2019-05-06T13:10:48.593Z,18.23
2019-05-06T13:13:18.580Z,18.47
2019-05-06T13:15:48.570Z,13.23
2019-05-06T13:18:18.535Z,10.03
2019-05-06T13:20:51.447Z,8.63
2019-05-06T13:23:26.133Z,9.60
2019-05-06T13:25:56.164Z,9.37
2019-05-06T13:28:30.405Z,8.80
2019-05-06T13:31:13.514Z,8.60
2019-05-06T13:33:36.129Z,10.33
2019-05-06T13:36:06.161Z,7.20
2019-05-06T13:38:36.953Z,9.20
2019-05-06T13:41:06.758Z,8.73
2019-05-06T13:43:44.224Z,10.27
2019-05-06T13:46:23.177Z,8.77
2019-05-06T13:49:14.081Z,11.83
2019-05-06T13:51:52.936Z,9.10
2019-05-06T13:54:22.799Z,10.37
2019-05-06T13:56:52.784Z,8.23
2019-05-06T13:59:22.674Z,9.63
2019-05-06T14:02:09.319Z,8.77
2019-05-06T14:04:39.177Z,9.40
2019-05-06T14:07:09.105Z,12.77
2019-05-06T14:09:40.195Z,14.20
2019-05-06T14:12:10.779Z,15.67
2019-05-06T14:14:43.188Z,15.17
2019-05-06T14:17:12.973Z,14.43
2019-05-06T14:19:43.183Z,12.90
2019-05-06T14:22:13.330Z,18.37
2019-05-06T14:24:50.302Z,14.47
2019-05-06T14:27:22.048Z,14.27
2019-05-06T14:29:59.212Z,13.40
2019-05-06T14:32:28.998Z,13.87
2019-05-06T14:34:58.888Z,12.30
2019-05-06T14:37:28.793Z,12.33
2019-05-06T14:40:00.491Z,12.43
2019-05-06T14:42:30.338Z,14.63
2019-05-06T14:45:00.466Z,12.90
2019-05-06T14:47:32.872Z,15.63
2019-05-06T14:50:03.894Z,11.93
2019-05-06T14:52:33.805Z,8.53
2019-05-06T14:55:18.342Z,18.50
2019-05-06T14:57:48.414Z,13.20
2019-05-06T15:00:19.887Z,15.47
2019-05-06T15:02:49.881Z,15.23
2019-05-06T15:05:22.532Z,14.77
2019-05-06T15:07:52.911Z,18.70
2019-05-06T15:10:26.174Z,13.67
2019-05-06T15:12:54.806Z,13.37
2019-05-06T15:15:24.752Z,19.87
2019-05-06T15:17:54.760Z,14.63
2019-05-06T15:20:24.725Z,15.83
2019-05-06T15:22:54.730Z,16.77
2019-05-06T15:25:24.922Z,9.60
2019-05-06T15:27:55.094Z,12.17
2019-05-06T15:30:33.683Z,13.47
2019-05-06T15:33:05.314Z,12.30
2019-05-06T15:35:52.673Z,10.37
2019-05-06T15:38:25.800Z,12.57
2019-05-06T15:40:57.309Z,18.50
2019-05-06T15:43:27.284Z,16.47
2019-05-06T15:45:57.264Z,13.77
2019-05-06T15:48:27.226Z,18.13
2019-05-06T15:50:57.238Z,14.93
2019-05-06T15:53:27.179Z,14.17
2019-05-06T15:55:57.158Z,15.90
2019-05-06T15:58:27.186Z,13.53
2019-05-06T16:00:57.178Z,15.67
2019-05-06T16:03:27.036Z,16.83
2019-05-06T16:05:56.959Z,17.13
2019-05-06T16:08:27.118Z,21.33
2019-05-06T16:10:58.868Z,15.67
2019-05-06T16:13:28.520Z,22.20
2019-05-06T16:15:58.777Z,15.53
2019-05-06T16:18:28.695Z,21.23
2019-05-06T16:20:58.602Z,18.40
2019-05-06T16:23:49.576Z,18.23
2019-05-06T16:26:19.565Z,18.73
2019-05-06T16:28:49.430Z,19.13
2019-05-06T16:31:19.372Z,18.23
2019-05-06T16:33:49.381Z,19.40
2019-05-06T16:36:19.293Z,13.47
2019-05-06T16:38:49.267Z,18.60
2019-05-06T16:41:19.330Z,16.13
2019-05-06T16:43:49.299Z,14.13
2019-05-06T16:46:19.405Z,16.13
2019-05-06T16:48:49.257Z,16.67
2019-05-06T16:51:19.282Z,13.60
2019-05-06T16:53:49.415Z,19.73
2019-05-06T16:56:28.961Z,16.67
2019-05-06T16:59:02.894Z,17.03
2019-05-06T17:01:35.476Z,13.87
2019-05-06T17:04:27.857Z,14.83
2019-05-06T17:06:57.970Z,13.93
2019-05-06T17:09:27.929Z,16.53
2019-05-06T17:11:58.510Z,16.77
2019-05-06T17:14:28.749Z,19.03
2019-05-06T17:16:59.095Z,15.30
2019-05-06T17:19:29.361Z,18.93
2019-05-06T17:21:59.722Z,19.43
2019-05-06T17:24:29.981Z,14.97
2019-05-06T17:27:02.543Z,20.90
2019-05-06T17:30:09.293Z,16.97
2019-05-06T17:32:43.257Z,17.53
2019-05-06T17:35:13.997Z,20.53
2019-05-06T17:38:14.845Z,15.47
2019-05-06T17:40:45.081Z,18.53
2019-05-06T17:43:15.289Z,16.03
2019-05-06T17:46:03.119Z,12.93
2019-05-06T17:48:45.218Z,24.67
2019-05-06T17:51:20.617Z,18.53
2019-05-06T17:53:53.565Z,13.90
2019-05-06T17:56:23.937Z,15.97
2019-05-06T17:58:54.247Z,12.97
2019-05-06T18:01:33.449Z,18.77
2019-05-06T18:04:03.607Z,21.27
2019-05-06T18:06:33.978Z,19.60
2019-05-06T18:09:05.801Z,18.17
2019-05-06T18:11:36.090Z,13.73
2019-05-06T18:14:07.081Z,17.43
2019-05-06T18:16:37.608Z,21.83
2019-05-06T18:19:07.895Z,20.33
2019-05-06T18:21:38.442Z,16.07
2019-05-06T18:24:09.940Z,24.43
2019-05-06T18:26:42.120Z,18.37
2019-05-06T18:29:12.767Z,15.97
2019-05-06T18:31:43.584Z,14.07
2019-05-06T18:34:14.355Z,16.60
2019-05-06T18:36:45.357Z,17.57
2019-05-06T18:56:55.736Z,14.27
2019-05-06T18:59:26.152Z,17.87
2019-05-06T19:01:57.708Z,13.80
2019-05-06T19:04:46.997Z,13.20
2019-05-06T19:07:17.695Z,9.27
2019-05-06T19:10:03.236Z,10.53
2019-05-06T19:12:40.671Z,12.87
2019-05-06T19:15:06.796Z,10.83
2019-05-06T19:17:38.382Z,12.00
2019-05-06T19:20:09.001Z,12.80
2019-05-06T19:22:40.976Z,9.87
2019-05-06T19:25:14.480Z,14.03
2019-05-06T19:27:44.113Z,8.37
2019-05-06T19:30:14.830Z,12.20
2019-05-06T19:32:47.886Z,11.23
2019-05-06T19:35:18.490Z,8.90
2019-05-06T19:37:49.146Z,14.80
2019-05-06T19:40:19.740Z,13.27
2019-05-06T19:42:53.179Z,12.47
2019-05-06T19:45:22.537Z,10.03
2019-05-06T19:47:53.738Z,15.20
2019-05-06T19:50:26.911Z,10.73
2019-05-06T19:52:58.238Z,9.77
2019-05-06T19:55:28.486Z,9.40
2019-05-06T19:57:59.113Z,12.73
2019-05-06T20:00:29.448Z,11.17
2019-05-06T20:02:59.759Z,10.00
2019-05-06T20:05:39.324Z,12.63
2019-05-06T20:08:32.562Z,7.63
2019-05-06T20:11:25.103Z,6.27
2019-05-06T20:13:55.564Z,9.03
2019-05-06T20:16:26.874Z,8.30
2019-05-06T20:18:57.144Z,10.27
2019-05-06T20:21:28.337Z,7.37
2019-05-06T20:23:58.765Z,8.67
2019-05-06T20:26:29.183Z,7.30
2019-05-06T20:29:02.047Z,9.37
2019-05-06T20:31:32.248Z,9.63
2019-05-06T20:37:43.168Z,8.23
2019-05-06T20:40:14.739Z,9.07
2019-05-06T20:42:44.999Z,11.53
2019-05-06T20:45:15.285Z,9.13
2019-05-06T20:47:54.634Z,11.53
2019-05-06T20:50:24.688Z,16.77
2019-05-06T20:52:54.560Z,8.07
2019-05-06T20:55:53.221Z,8.27
2019-05-06T20:58:23.224Z,8.00
2019-05-06T21:00:52.909Z,7.37
2019-05-06T21:03:22.553Z,10.77
2019-05-06T21:05:52.196Z,9.87
2019-05-06T21:08:22.215Z,7.57
2019-05-06T21:10:52.942Z,8.37
2019-05-06T21:13:31.826Z,9.27
2019-05-06T21:15:54.943Z,10.80
2019-05-06T21:18:28.984Z,7.27
2019-05-06T21:20:58.719Z,8.70
2019-05-06T21:23:28.568Z,9.67
2019-05-06T21:25:58.447Z,9.47
2019-05-06T21:28:28.351Z,6.07
2019-05-06T21:30:58.148Z,10.00
2019-05-06T21:33:27.974Z,6.10
2019-05-06T21:35:57.885Z,7.77
2019-05-06T21:38:27.637Z,8.97
2019-05-06T21:40:57.429Z,5.53
2019-05-06T21:43:27.477Z,7.27
2019-05-06T21:45:57.275Z,8.53
2019-05-06T21:48:27.209Z,8.10
2019-05-06T21:50:57.069Z,5.23
2019-05-06T21:53:26.802Z,5.93
2019-05-06T21:55:56.589Z,7.97
2019-05-06T21:58:26.351Z,5.50
2019-05-06T22:01:05.189Z,5.90
2019-05-06T22:03:35.021Z,8.43
2019-05-06T22:06:04.928Z,5.07
2019-05-06T22:08:34.795Z,6.57
2019-05-06T22:11:04.625Z,11.37
2019-05-06T22:13:34.375Z,6.30
2019-05-06T22:16:04.892Z,4.87
2019-05-06T22:18:34.753Z,8.17
2019-05-06T22:21:31.891Z,5.27
2019-05-06T22:24:04.731Z,9.40
2019-05-06T22:26:34.091Z,5.00
2019-05-06T22:29:03.839Z,8.03
2019-05-06T22:31:33.577Z,5.43
2019-05-06T22:34:03.388Z,5.07
2019-05-06T22:36:33.164Z,6.20
2019-05-06T22:39:03.046Z,8.93
2019-05-06T22:41:32.859Z,7.87
2019-05-06T22:44:13.094Z,6.30
2019-05-06T22:46:34.024Z,12.57
2019-05-06T22:49:03.838Z,7.43
2019-05-06T22:51:33.627Z,9.70
2019-05-06T22:54:03.417Z,9.63
2019-05-06T22:56:33.274Z,5.20
2019-05-06T22:59:03.472Z,6.23
2019-05-06T23:01:48.240Z,8.57
2019-05-06T23:04:18.992Z,7.07
2019-05-06T23:06:48.678Z,8.30
2019-05-06T23:09:18.425Z,5.83
2019-05-06T23:11:48.105Z,7.93
2019-05-06T23:14:28.818Z,5.43
2019-05-06T23:16:49.291Z,8.53
2019-05-06T23:36:23.668Z,5.97
2019-05-06T23:39:28.937Z,6.83
2019-05-06T23:42:34.359Z,7.33
2019-05-06T23:45:39.768Z,6.00
2019-05-06T23:48:44.824Z,5.80
2019-05-06T23:51:49.787Z,5.67
2019-05-06T23:54:54.866Z,4.73
2019-05-06T23:57:24.908Z,6.30
2019-05-06T23:59:54.728Z,6.53
